This is the latest recevied weather packets stored in our database for station/object YC0TBU-4. If no packets are shown the sender has not sent any weather packets the latest 10 day(s).
| Time | Temp. | Humidity | Pressure | Rain* | Wind** | Luminosity | Snow |
|---|---|---|---|---|---|---|---|
| 1787645887 | 32.22° C | 34% | 1012.4 hPa | - | - | - | - |
| 1787644087 | 31.67° C | 34% | 1012.6 hPa | - | - | - | - |
| 1787642287 | 31.67° C | 34% | 1012.7 hPa | - | - | - | - |
| 1787640487 | 32.22° C | 32% | 1013 hPa | - | - | - | - |
| 1787638687 | 31.67° C | 32% | 1013.3 hPa | - | - | - | - |
| 1787636887 | 31.67° C | 33% | 1013.7 hPa | - | - | - | - |
| 1787635070 | 30.56° C | 32% | 1014 hPa | - | - | - | - |
| 1787633254 | 31.11° C | 31% | 1014.6 hPa | - | - | - | - |
| 1787631454 | 30° C | 33% | 1014.9 hPa | - | - | - | - |
| 1787629654 | 29.44° C | 34% | 1015.4 hPa | - | - | - | - |
| 1787627854 | 28.89° C | 36% | 1015.7 hPa | - | - | - | - |
| 1787626022 | 28.33° C | 39% | 1016.3 hPa | - | - | - | - |
| 1787624206 | 27.22° C | 41% | 1016.5 hPa | - | - | - | - |
| 1787622406 | 27.22° C | 42% | 1016.6 hPa | - | - | - | - |
| 1787620605 | 26.67° C | 42% | 1016.6 hPa | - | - | - | - |
| 1787618805 | 26.67° C | 43% | 1016.4 hPa | - | - | - | - |
| 1787617006 | 27.22° C | 43% | 1016.4 hPa | - | - | - | - |
| 1787615189 | 26.67° C | 43% | 1016.1 hPa | - | - | - | - |
| 1787613389 | 26.67° C | 43% | 1015.7 hPa | - | - | - | - |
| 1787611589 | 26.67° C | 43% | 1015.5 hPa | - | - | - | - |
| 1787609789 | 26.67° C | 44% | 1015.5 hPa | - | - | - | - |
| 1787607989 | 27.22° C | 44% | 1015.6 hPa | - | - | - | - |
| 1787606189 | 27.22° C | 44% | 1015.5 hPa | - | - | - | - |
| 1787604389 | 27.22° C | 44% | 1015.4 hPa | - | - | - | - |
| 1787602589 | 27.78° C | 43% | 1015.3 hPa | - | - | - | - |
* Rain since midnight (hover to see other rain measurements)
** Current wind speed in m/s (hover to see current wind gust speed)